El Campo, TX (77437)

9:57 AM CDT on April 21, 2015 (GMT -0500)
FM1160 | | Change Station
CLOSE
Current Station
Personal Weather Station
Location: Louise, TX
Elevation: 105 ft
Nearby Weather Stations
Active Advisory: Flood Warning

Elev 105 ft 29.20 °N, 96.40 °W | Updated 6 minutes ago

Clear
Clear
69.7 °F
Feels Like 69.7 °F
N
6.0
Wind Variable Wind from East
Gusts 10.7 mph

Today
High -- | Low -- °F
--% Chance of Precip.
Yesterday
High -- | Low -- °F
Precip. -- in
6:53 AM 7:55 PM
Waxing Crescent, 11% visible
Pressure 30.01 in
Visibility 10.0 miles
Clouds Clear
Dew Point 58 °F
Humidity 65%
Rainfall 0.00 in
Snow Depth Not available.
UV 4 out of 12
Pollen 8.30 out of 12
Air Quality Not available.
Flu Activity Local Activity
METAR KARM 211435Z AUTO 07009KT 10SM CLR 21/13 A3001 RMK AO2 T02070126

More Conditions Fewer Conditions

Pressure 30.01 in
Visibility 10.0 miles
Clouds Clear
Dew Point 58 °F
Humidity 65%
Rainfall 0.00 in
Snow Depth Not available.
UV 4 out of 12
Pollen 8.30 out of 12
Air Quality Not available.
Flu Activity Local Activity
METAR KARM 211435Z AUTO 07009KT 10SM CLR 21/13 A3001 RMK AO2 T02070126

More Conditions Fewer Conditions

10-Day Weather Forecast

Almanac

Astronomy

Apr. 21, 2015 Rise Set
Actual Time
Civil Twilight
Nautical Twilight
Astronomical Twilight
Moon
Length of Visible Light
Length of Day
Tomorrow will be .
, % of the Moon is Illuminated

Today's Extremes

State Highs State Lows

Community

WunderPhotos

Upload Photos

1,815,413 photos uploaded!

WunderBlogs® & News

Nearby

Air Quality

  Air Quality AQ Index Pollutant
Not available.

Snow Depth

Station Depth Elevation

Earthquake Activity

City Distance Mag. Time & Date
Minimum magnitude displayed is 2.5.

Coastal Water Temperatures

Place Temperature

Stations

Nearby Weather Stations

Station Location Temp. Windchill Dew Point Humidity Wind Precip. Elev Updated Type
                   
Flood Warning
Statement as of 9:20 AM CDT on April 21, 2015

... Flood Warning extended until Friday evening... the Flood Warning continues for
the San Bernard River near Boling
* until Friday evening... or until the warning is cancelled.
* At 0900 am Tuesday the stage was 27.5 feet
* moderate flooding is occurring and moderate flooding is forecast.
* Flood stage is 18.0 feet
* forecast... the river will continue to fall to below flood stage by Friday
morning.
* At 27.0 feet... there is widespread moderate lowland flooding upstream from the
gage with significant backwater flooding up west Bernard creek and Peach Creek
in Wharton County and low lying areas in the El Lobo subdivision are
threatened. Backwater flooding up Snake Creek in Fort Bend County threatens
low areas in the tierra grande subdivision.


Lat... Lon 2940 9592 2930 9584 2913 9566 2913 9577 2930 9595 2940 9605



                     flood observed forecast 6 am
location stage stage day time Wed Thu Fri Sat

San Bernard River
Boling 18 27.5 Tue 09 am 25.5 22.3 17.9 14.2